Time;durP1;ratioP1;P1;durP2;ratioP2;P2;SDS_P1;SDS_P2;PMS_P1;PMS_P2;Temp;Humidity;BMP_temperature;BMP_pressure;BME280_temperature;BME280_humidity;BME280_pressure;Samples;Min_cycle;Max_cycle;Signal;HPM_P1;HPM_P2
2024/01/05 19:15:10;;;;;;;820.70;770.03;;;6.60;99.90;;;;;;5137331;27;20591;-86
2024/01/05 19:29:07;;;;;;;820.60;767.70;;;6.50;99.90;;;;;;5072447;22;20491;-61
2024/01/05 19:31:41;;;;;;;827.57;772.80;;;6.50;99.90;;;;;;5046650;28;20855;-61
2024/01/05 19:34:11;;;;;;;841.90;785.20;;;6.50;99.90;;;;;;5048092;28;20558;-61
2024/01/05 19:36:42;;;;;;;830.77;776.30;;;6.50;99.90;;;;;;5047759;28;20450;-61
2024/01/05 19:39:10;;;;;;;869.50;811.40;;;6.40;99.90;;;;;;5047751;28;20444;-61
2024/01/05 19:41:42;;;;;;;869.17;807.83;;;6.40;99.90;;;;;;5048357;28;20550;-62
2024/01/05 19:44:09;;;;;;;901.33;834.27;;;6.40;99.90;;;;;;5048125;28;20483;-62
2024/01/05 19:46:38;;;;;;;891.03;824.07;;;6.40;99.90;;;;;;5048136;28;20558;-62
2024/01/05 19:49:06;;;;;;;879.83;815.47;;;6.30;99.90;;;;;;5048242;28;20803;-61
2024/01/05 19:51:33;;;;;;;895.20;826.23;;;6.40;99.90;;;;;;5048124;28;20447;-61
2024/01/05 19:54:00;;;;;;;878.53;812.77;;;6.40;99.90;;;;;;5048199;28;20498;-61
2024/01/05 19:56:26;;;;;;;890.50;822.57;;;6.40;99.90;;;;;;5047651;28;20487;-62
2024/01/05 19:58:54;;;;;;;867.80;803.03;;;6.30;99.90;;;;;;5047820;28;20447;-61
2024/01/05 20:01:21;;;;;;;874.57;808.37;;;6.40;99.90;;;;;;5048222;28;20863;-61
2024/01/05 20:03:50;;;;;;;865.37;800.77;;;6.40;99.90;;;;;;5047923;28;20545;-61
2024/01/05 20:06:17;;;;;;;870.60;804.80;;;6.40;99.90;;;;;;5047531;28;20450;-61
2024/01/05 20:08:43;;;;;;;872.43;806.10;;;6.40;99.90;;;;;;5047691;28;20472;-62
2024/01/05 20:11:13;;;;;;;863.57;798.67;;;6.40;99.90;;;;;;5047761;28;20491;-61
2024/01/05 20:13:40;;;;;;;884.30;816.40;;;6.40;99.90;;;;;;5047990;28;20463;-62
2024/01/05 20:16:07;;;;;;;875.50;807.90;;;6.40;99.90;;;;;;5047646;28;20453;-61
2024/01/05 20:18:34;;;;;;;876.50;809.90;;;6.40;99.90;;;;;;5047501;28;20466;-61
2024/01/05 20:21:03;;;;;;;875.30;810.17;;;6.40;99.90;;;;;;5047533;28;20457;-61
2024/01/05 20:23:31;;;;;;;869.93;805.30;;;6.40;99.90;;;;;;5047435;28;20562;-61
2024/01/05 20:25:58;;;;;;;864.90;800.60;;;6.40;99.90;;;;;;5036840;28;20443;-62
2024/01/05 20:28:29;;;;;;;871.27;806.77;;;6.40;99.90;;;;;;5033956;28;20551;-62
2024/01/05 20:30:56;;;;;;;862.63;798.80;;;6.40;99.90;;;;;;5034368;28;20448;-62
2024/01/05 20:33:25;;;;;;;871.23;807.77;;;6.40;99.90;;;;;;5034093;28;20451;-62
2024/01/05 20:35:52;;;;;;;875.73;810.63;;;6.40;99.90;;;;;;5033804;28;20789;-62
2024/01/05 20:38:20;;;;;;;868.97;804.07;;;6.40;99.90;;;;;;5033661;28;20486;-62
2024/01/05 20:40:47;;;;;;;876.97;810.70;;;6.40;99.90;;;;;;5034042;28;20456;-63
2024/01/05 20:43:14;;;;;;;878.47;812.77;;;6.40;99.90;;;;;;5033921;28;20452;-63
2024/01/05 20:45:43;;;;;;;887.53;820.30;;;6.40;99.90;;;;;;5033598;28;20959;-63
2024/01/05 20:48:10;;;;;;;874.53;808.27;;;6.40;99.90;;;;;;5034396;28;20452;-63
2024/01/05 20:50:38;;;;;;;872.67;805.97;;;6.40;99.90;;;;;;5033620;28;20531;-63
2024/01/05 20:53:06;;;;;;;867.07;802.00;;;6.40;99.90;;;;;;5033752;28;20452;-62
2024/01/05 20:55:34;;;;;;;869.87;804.67;;;6.40;99.90;;;;;;5033744;28;20456;-62
2024/01/05 20:58:01;;;;;;;860.67;797.37;;;6.40;99.90;;;;;;5034058;28;20539;-62
2024/01/05 21:00:28;;;;;;;864.87;803.60;;;6.40;99.90;;;;;;5033513;28;20510;-62
2024/01/05 21:02:55;;;;;;;864.20;804.00;;;6.50;99.90;;;;;;5033640;28;20815;-62
2024/01/05 21:05:22;;;;;;;863.77;805.00;;;6.50;99.90;;;;;;5032898;28;20583;-62
2024/01/05 21:07:49;;;;;;;854.80;796.93;;;6.50;99.90;;;;;;5033605;28;20448;-62
2024/01/05 21:10:16;;;;;;;864.07;805.07;;;6.50;99.90;;;;;;5033652;28;20543;-62
2024/01/05 21:12:45;;;;;;;861.67;804.07;;;6.40;99.90;;;;;;5033023;28;20448;-62
2024/01/05 21:15:13;;;;;;;859.03;801.77;;;6.50;99.90;;;;;;5033360;28;20483;-62
2024/01/05 21:17:40;;;;;;;857.17;799.20;;;6.50;99.90;;;;;;5033090;28;20455;-62
2024/01/05 21:20:09;;;;;;;863.83;803.90;;;6.50;99.90;;;;;;5033305;28;20460;-62
2024/01/05 21:22:37;;;;;;;862.40;803.20;;;6.50;99.90;;;;;;5033503;28;20448;-62
2024/01/05 21:25:05;;;;;;;874.03;813.73;;;6.50;99.90;;;;;;5033242;28;20538;-62
2024/01/05 21:27:32;;;;;;;872.13;812.67;;;6.50;99.90;;;;;;5032781;28;20455;-63
2024/01/05 21:30:01;;;;;;;867.27;806.50;;;6.50;99.90;;;;;;5033025;28;20448;-62
2024/01/05 21:32:28;;;;;;;871.77;811.60;;;6.40;99.90;;;;;;5032448;28;20874;-63
2024/01/05 21:34:56;;;;;;;879.40;817.60;;;6.40;99.90;;;;;;5032863;28;20471;-63
2024/01/05 21:37:23;;;;;;;878.33;818.63;;;6.40;99.90;;;;;;5031710;28;20878;-63
2024/01/05 21:39:51;;;;;;;877.07;815.97;;;6.50;99.90;;;;;;5032842;28;20855;-63
2024/01/05 21:42:18;;;;;;;894.07;832.03;;;6.50;99.90;;;;;;5032936;28;20513;-63
2024/01/05 21:44:45;;;;;;;889.83;827.83;;;6.50;99.90;;;;;;5032680;28;20483;-63
2024/01/05 21:47:13;;;;;;;879.70;819.03;;;6.50;99.90;;;;;;5032661;28;20448;-63
2024/01/05 21:49:40;;;;;;;882.10;821.70;;;6.50;99.90;;;;;;5032695;28;20452;-63
2024/01/05 21:52:07;;;;;;;889.07;828.17;;;6.40;99.90;;;;;;5032997;28;20452;-63
2024/01/05 21:54:34;;;;;;;890.50;830.07;;;6.40;99.90;;;;;;5032744;28;20448;-63
2024/01/05 21:57:02;;;;;;;891.53;832.30;;;6.40;99.90;;;;;;5032361;28;20448;-63
2024/01/05 21:59:32;;;;;;;888.50;829.10;;;6.50;99.90;;;;;;5032128;28;20462;-63
2024/01/05 22:01:59;;;;;;;894.10;834.50;;;6.40;99.90;;;;;;5032671;28;20535;-63
2024/01/05 22:04:27;;;;;;;890.20;829.97;;;6.50;99.90;;;;;;5032619;28;20522;-63
2024/01/05 22:06:54;;;;;;;894.90;834.00;;;6.50;99.90;;;;;;5032267;28;20459;-62
2024/01/05 22:09:22;;;;;;;892.33;832.03;;;6.50;99.90;;;;;;5032236;28;20547;-63
2024/01/05 22:11:48;;;;;;;889.57;829.30;;;6.50;99.90;;;;;;5032360;28;20971;-63
2024/01/05 22:14:16;;;;;;;888.93;828.27;;;6.50;99.90;;;;;;5032272;28;20501;-63
2024/01/05 22:16:43;;;;;;;896.00;835.37;;;6.60;99.90;;;;;;5032141;28;20452;-63
2024/01/05 22:19:11;;;;;;;891.80;831.93;;;6.60;99.90;;;;;;5032233;28;20803;-63
2024/01/05 22:21:41;;;;;;;885.73;826.87;;;6.60;99.90;;;;;;5032136;28;20452;-63
2024/01/05 22:24:08;;;;;;;887.23;829.10;;;6.60;99.90;;;;;;5032176;28;20511;-63
2024/01/05 22:26:35;;;;;;;889.20;830.83;;;6.60;99.90;;;;;;5031668;28;20452;-63
2024/01/05 22:29:04;;;;;;;895.00;837.03;;;6.60;99.90;;;;;;5031917;28;20456;-63
2024/01/05 22:31:31;;;;;;;885.40;828.50;;;6.60;99.90;;;;;;5032432;28;20535;-63
2024/01/05 22:33:59;;;;;;;887.20;830.27;;;6.60;99.90;;;;;;5031970;28;20452;-63
2024/01/05 22:36:26;;;;;;;892.83;835.03;;;6.60;99.90;;;;;;5031595;28;20448;-63
2024/01/05 22:38:54;;;;;;;884.03;827.37;;;6.60;99.90;;;;;;5031563;28;20854;-63
2024/01/05 22:41:23;;;;;;;889.70;832.50;;;6.60;99.90;;;;;;5031867;28;20495;-63
2024/01/05 22:43:51;;;;;;;885.80;828.00;;;6.60;99.90;;;;;;5031935;28;20955;-63
2024/01/05 22:46:18;;;;;;;884.00;826.80;;;6.60;99.90;;;;;;5031848;28;20484;-63
2024/01/05 22:48:46;;;;;;;884.47;826.27;;;6.60;99.90;;;;;;5031393;28;20534;-63
2024/01/05 22:51:20;;;;;;;883.33;826.47;;;6.70;99.90;;;;;;5031770;28;20448;-63
2024/01/05 22:53:47;;;;;;;889.53;831.17;;;6.70;99.90;;;;;;5031652;28;20946;-63
2024/01/05 22:56:16;;;;;;;887.57;828.90;;;6.70;99.90;;;;;;5031462;28;20963;-64
2024/01/05 22:58:44;;;;;;;886.47;828.37;;;6.70;99.90;;;;;;5031429;28;20454;-64
2024/01/05 23:01:18;;;;;;;885.67;826.57;;;6.70;99.90;;;;;;5031584;28;21039;-64
2024/01/05 23:03:45;;;;;;;888.93;829.63;;;6.70;99.90;;;;;;5031744;28;20808;-64
2024/01/05 23:06:11;;;;;;;896.03;835.80;;;6.70;99.90;;;;;;5031185;28;20811;-64
2024/01/05 23:08:38;;;;;;;900.13;839.63;;;6.70;99.90;;;;;;5031572;28;20971;-64
2024/01/05 23:11:07;;;;;;;908.03;846.93;;;6.80;99.90;;;;;;5031744;28;20448;-64
2024/01/05 23:13:35;;;;;;;897.23;836.73;;;6.80;99.90;;;;;;5031397;28;20506;-64
2024/01/05 23:16:02;;;;;;;895.13;835.60;;;6.80;99.90;;;;;;5031187;28;20451;-64
2024/01/05 23:18:29;;;;;;;897.17;836.60;;;6.80;99.90;;;;;;5031195;28;21013;-64
2024/01/05 23:20:56;;;;;;;898.67;838.80;;;6.80;99.90;;;;;;5031600;28;20459;-63
2024/01/05 23:23:23;;;;;;;909.03;847.97;;;6.80;99.90;;;;;;5031390;28;20929;-63
2024/01/05 23:25:50;;;;;;;913.37;851.37;;;6.80;99.90;;;;;;5031094;28;20476;-63
2024/01/05 23:28:17;;;;;;;904.53;841.67;;;6.80;99.90;;;;;;5030967;28;20836;-64
2024/01/05 23:30:46;;;;;;;905.53;842.40;;;6.80;99.90;;;;;;5031408;28;20456;-64
2024/01/05 23:33:13;;;;;;;903.40;839.80;;;6.80;99.90;;;;;;5031141;28;20456;-64
2024/01/05 23:35:40;;;;;;;898.60;834.20;;;6.80;99.90;;;;;;5030986;28;20448;-64
2024/01/05 23:38:07;;;;;;;904.37;840.40;;;6.80;99.90;;;;;;5031303;28;20455;-64
2024/01/05 23:40:34;;;;;;;906.83;842.30;;;6.80;99.90;;;;;;5031282;28;20449;-64
2024/01/05 23:43:01;;;;;;;904.23;839.83;;;6.80;99.90;;;;;;5031294;28;20447;-64
2024/01/05 23:45:28;;;;;;;905.57;841.50;;;6.80;99.90;;;;;;5030981;28;20480;-64
2024/01/05 23:47:56;;;;;;;904.90;840.50;;;6.80;99.90;;;;;;5031095;28;20514;-64
2024/01/05 23:50:23;;;;;;;900.60;836.53;;;6.80;99.90;;;;;;5031244;28;20484;-64
2024/01/05 23:52:50;;;;;;;903.20;838.30;;;6.80;99.90;;;;;;5031425;28;20544;-64
2024/01/05 23:55:18;;;;;;;906.47;840.77;;;6.80;99.90;;;;;;5031033;28;20936;-64
2024/01/05 23:57:44;;;;;;;905.90;839.90;;;6.80;99.90;;;;;;5031018;28;20931;-64
